createdAt,value
2018-03-01T00:00:02.743Z,-2.70
2018-03-01T00:01:05.254Z,-2.80
2018-03-01T00:02:08.518Z,-2.90
2018-03-01T00:03:11.029Z,-2.90
2018-03-01T00:04:13.534Z,-2.90
2018-03-01T00:05:16.080Z,-2.90
2018-03-01T00:06:18.718Z,-3.00
2018-03-01T00:07:22.118Z,-2.90
2018-03-01T00:08:24.622Z,-3.00
2018-03-01T00:09:27.122Z,-3.00
2018-03-01T00:10:30.406Z,-2.90
2018-03-01T00:11:33.682Z,-2.90
2018-03-01T00:12:36.966Z,-2.90
2018-03-01T00:13:40.238Z,-2.90
2018-03-01T00:14:42.746Z,-2.90
2018-03-01T00:15:45.306Z,-2.90
2018-03-01T00:16:47.818Z,-2.90
2018-03-01T00:17:50.318Z,-2.90
2018-03-01T00:18:53.594Z,-3.00
2018-03-01T00:19:56.870Z,-3.10
2018-03-01T00:20:59.406Z,-3.10
2018-03-01T00:22:01.906Z,-3.10
2018-03-01T00:23:05.178Z,-3.10
2018-03-01T00:24:07.691Z,-3.10
2018-03-01T00:25:10.198Z,-3.10
2018-03-01T00:26:12.824Z,-3.10
2018-03-01T00:27:15.330Z,-3.10
2018-03-01T00:28:17.842Z,-3.10
2018-03-01T00:29:21.110Z,-3.10
2018-03-01T00:30:24.390Z,-3.00
2018-03-01T00:31:28.012Z,-3.00
2018-03-01T00:32:30.517Z,-3.00
2018-03-01T00:33:33.042Z,-3.00
2018-03-01T00:34:36.506Z,-3.00
2018-03-01T00:35:39.777Z,-2.90
2018-03-01T00:36:43.078Z,-2.90
2018-03-01T00:37:46.346Z,-3.00
2018-03-01T00:38:48.855Z,-3.00
2018-03-01T00:39:51.358Z,-3.00
2018-03-01T00:40:53.858Z,-3.00
2018-03-01T00:41:57.170Z,-3.00
2018-03-01T00:42:59.702Z,-3.00
2018-03-01T00:44:02.981Z,-3.00
2018-03-01T00:45:06.978Z,-3.00
2018-03-01T00:46:10.242Z,-3.10
2018-03-01T00:47:12.766Z,-3.10
2018-03-01T00:48:15.270Z,-3.10
2018-03-01T00:49:17.774Z,-3.10
2018-03-01T00:50:20.291Z,-3.00
2018-03-01T00:51:22.837Z,-3.00
2018-03-01T00:52:25.338Z,-2.90
2018-03-01T00:53:27.931Z,-2.90
2018-03-01T00:54:31.199Z,-2.90
2018-03-01T00:55:34.502Z,-2.80
2018-03-01T00:56:37.022Z,-2.80
2018-03-01T00:57:39.566Z,-2.80
2018-03-01T00:58:42.066Z,-2.80
2018-03-01T00:59:44.598Z,-2.80
2018-03-01T01:00:47.124Z,-2.80
2018-03-01T01:01:50.414Z,-2.80
2018-03-01T01:02:52.947Z,-2.80
2018-03-01T01:03:55.466Z,-2.80
2018-03-01T01:04:58.010Z,-2.80
2018-03-01T01:06:01.287Z,-2.70
2018-03-01T01:07:04.569Z,-2.70
2018-03-01T01:08:07.850Z,-2.70
2018-03-01T01:09:11.122Z,-2.80
2018-03-01T01:10:13.703Z,-2.80
2018-03-01T01:11:16.965Z,-2.80
2018-03-01T01:12:20.244Z,-2.80
2018-03-01T01:13:22.778Z,-2.80
2018-03-01T01:14:25.278Z,-2.80
2018-03-01T01:15:27.779Z,-2.80
2018-03-01T01:16:30.341Z,-2.80
2018-03-01T01:17:32.918Z,-2.80
2018-03-01T01:18:35.438Z,-2.80
2018-03-01T01:19:37.949Z,-2.70
2018-03-01T01:20:40.461Z,-2.70
2018-03-01T01:21:42.980Z,-2.70
2018-03-01T01:22:45.498Z,-2.70
2018-03-01T01:23:48.099Z,-2.70
2018-03-01T01:24:51.362Z,-2.70
2018-03-01T01:25:53.891Z,-2.70
2018-03-01T01:26:56.394Z,-2.70
2018-03-01T01:27:59.678Z,-2.70
2018-03-01T01:29:03.018Z,-2.70
2018-03-01T01:30:05.526Z,-2.70
2018-03-01T01:31:08.032Z,-2.70
2018-03-01T01:32:10.561Z,-2.60
2018-03-01T01:33:13.877Z,-2.70
2018-03-01T01:34:16.418Z,-2.70
2018-03-01T01:35:19.686Z,-2.70
2018-03-01T01:36:22.206Z,-2.70
2018-03-01T01:37:24.722Z,-2.70
2018-03-01T01:38:27.234Z,-2.70
2018-03-01T01:39:30.017Z,-2.80
2018-03-01T01:40:32.534Z,-2.80
2018-03-01T01:41:35.807Z,-2.80
2018-03-01T01:42:38.400Z,-2.80
2018-03-01T01:43:40.935Z,-2.80
2018-03-01T01:44:43.463Z,-2.80
2018-03-01T01:45:45.962Z,-2.80
2018-03-01T01:46:48.502Z,-2.80
2018-03-01T01:47:51.006Z,-2.80
2018-03-01T01:48:54.278Z,-2.70
2018-03-01T01:49:56.854Z,-2.70
2018-03-01T01:51:04.333Z,-2.70
2018-03-01T01:52:06.838Z,-2.60
2018-03-01T01:53:09.342Z,-2.60
2018-03-01T01:54:11.856Z,-2.60
2018-03-01T01:55:14.398Z,-2.60
2018-03-01T01:56:17.684Z,-2.60
2018-03-01T01:57:20.958Z,-2.60
2018-03-01T01:58:23.466Z,-2.60
2018-03-01T01:59:25.971Z,-2.50
2018-03-01T02:00:28.495Z,-2.50
2018-03-01T02:01:31.003Z,-2.60
2018-03-01T02:02:33.542Z,-2.50
2018-03-01T02:03:36.053Z,-2.60
2018-03-01T02:04:38.554Z,-2.60
2018-03-01T02:05:41.102Z,-2.70
2018-03-01T02:06:44.366Z,-2.70
2018-03-01T02:07:46.878Z,-2.70
2018-03-01T02:08:49.378Z,-2.70
2018-03-01T02:09:51.910Z,-2.70
2018-03-01T02:10:54.442Z,-2.70
2018-03-01T02:11:57.715Z,-2.70
2018-03-01T02:13:00.223Z,-2.70
2018-03-01T02:14:02.732Z,-2.70
2018-03-01T02:15:05.238Z,-2.80
2018-03-01T02:16:07.775Z,-2.80
2018-03-01T02:17:10.278Z,-2.80
2018-03-01T02:18:12.778Z,-2.80
2018-03-01T02:19:15.282Z,-2.80
2018-03-01T02:20:18.557Z,-2.80
2018-03-01T02:21:21.850Z,-2.80
2018-03-01T02:22:25.122Z,-2.80
2018-03-01T02:23:27.622Z,-2.80
2018-03-01T02:24:30.126Z,-2.80
2018-03-01T02:25:32.628Z,-2.80
2018-03-01T02:26:35.942Z,-2.80
2018-03-01T02:27:38.441Z,-2.80
2018-03-01T02:28:40.942Z,-2.70
2018-03-01T02:29:44.216Z,-2.80
2018-03-01T02:30:47.479Z,-2.80
2018-03-01T02:31:49.998Z,-2.80
2018-03-01T02:32:52.512Z,-2.80
2018-03-01T02:33:55.051Z,-2.80
2018-03-01T02:34:57.567Z,-2.70
2018-03-01T02:36:00.854Z,-2.70
2018-03-01T02:37:04.144Z,-2.70
2018-03-01T02:38:07.414Z,-2.70
2018-03-01T02:39:10.688Z,-2.70
2018-03-01T02:40:13.199Z,-2.70
2018-03-01T02:41:15.715Z,-2.70
2018-03-01T02:42:18.251Z,-2.70
2018-03-01T02:43:20.746Z,-2.70
2018-03-01T02:44:23.266Z,-2.80
2018-03-01T02:45:25.763Z,-2.80
2018-03-01T02:46:28.278Z,-2.80
2018-03-01T02:47:30.810Z,-2.80
2018-03-01T02:48:34.090Z,-2.80
2018-03-01T02:49:36.614Z,-2.80
2018-03-01T02:50:39.132Z,-2.80
2018-03-01T02:51:42.395Z,-2.80
2018-03-01T02:52:44.938Z,-2.70
2018-03-01T02:53:47.438Z,-2.70
2018-03-01T02:54:49.946Z,-2.70
2018-03-01T02:55:52.461Z,-2.70
2018-03-01T02:56:54.974Z,-2.80
2018-03-01T02:57:57.530Z,-2.80
2018-03-01T02:59:00.028Z,-2.80
2018-03-01T03:00:02.532Z,-2.90
2018-03-01T03:01:05.807Z,-2.90
2018-03-01T03:02:08.310Z,-2.90
2018-03-01T03:03:10.834Z,-2.90
2018-03-01T03:04:13.334Z,-2.90
2018-03-01T03:05:16.602Z,-2.90
2018-03-01T03:06:19.877Z,-2.90
2018-03-01T03:07:22.390Z,-2.90
2018-03-01T03:08:24.910Z,-2.80
2018-03-01T03:09:27.417Z,-2.80
2018-03-01T03:10:29.940Z,-2.80
2018-03-01T03:11:32.457Z,-2.70
2018-03-01T03:12:34.958Z,-2.70
2018-03-01T03:13:37.509Z,-2.70
2018-03-01T03:14:40.014Z,-2.80
2018-03-01T03:15:43.284Z,-2.90
2018-03-01T03:16:45.800Z,-2.90
2018-03-01T03:17:48.302Z,-2.90
2018-03-01T03:18:50.835Z,-2.90
2018-03-01T03:19:53.347Z,-2.90
2018-03-01T03:20:55.858Z,-2.90
2018-03-01T03:21:58.378Z,-2.90
2018-03-01T03:23:00.975Z,-2.90
2018-03-01T03:24:03.498Z,-2.90
2018-03-01T03:25:06.002Z,-2.90
2018-03-01T03:26:08.518Z,-2.90
2018-03-01T03:27:11.027Z,-2.90
2018-03-01T03:28:14.292Z,-3.00
2018-03-01T03:29:16.830Z,-3.00
2018-03-01T03:30:19.331Z,-2.90
2018-03-01T03:31:22.606Z,-2.90
2018-03-01T03:32:25.874Z,-3.00
2018-03-01T03:33:28.398Z,-3.00
2018-03-01T03:34:30.939Z,-3.00
2018-03-01T03:35:34.201Z,-3.00
2018-03-01T03:36:37.485Z,-3.00
2018-03-01T03:37:39.997Z,-3.00
2018-03-01T03:38:42.511Z,-3.00
2018-03-01T03:39:45.030Z,-3.00
2018-03-01T03:40:47.530Z,-3.00
2018-03-01T03:41:50.036Z,-3.00
2018-03-01T03:42:52.550Z,-3.00
2018-03-01T03:43:55.060Z,-3.00
2018-03-01T03:44:58.354Z,-2.90
2018-03-01T03:46:00.859Z,-2.90
2018-03-01T03:47:03.358Z,-3.00
2018-03-01T03:48:05.955Z,-2.90
2018-03-01T03:49:08.465Z,-2.90
2018-03-01T03:50:10.983Z,-2.90
2018-03-01T03:51:13.500Z,-2.90
2018-03-01T03:52:16.006Z,-2.90
2018-03-01T03:53:19.277Z,-2.90
2018-03-01T03:54:22.550Z,-2.90
2018-03-01T03:55:25.850Z,-2.90
2018-03-01T03:56:29.128Z,-2.90
2018-03-01T03:57:32.402Z,-2.90
2018-03-01T03:58:34.918Z,-2.90
2018-03-01T03:59:37.443Z,-2.90
2018-03-01T04:00:40.764Z,-2.90
2018-03-01T04:01:43.263Z,-2.90
2018-03-01T04:02:45.766Z,-2.90
2018-03-01T04:03:49.038Z,-2.80
2018-03-01T04:04:52.308Z,-2.80
2018-03-01T04:05:54.859Z,-2.80
2018-03-01T04:06:57.362Z,-2.80
2018-03-01T04:08:00.636Z,-2.80
2018-03-01T04:09:03.915Z,-2.70
2018-03-01T04:10:07.198Z,-2.70
2018-03-01T04:11:10.487Z,-2.70
2018-03-01T04:12:13.002Z,-2.70
2018-03-01T04:13:15.513Z,-2.80
2018-03-01T04:14:18.782Z,-2.80
2018-03-01T04:15:21.295Z,-2.80
2018-03-01T04:16:23.824Z,-2.80
2018-03-01T04:17:26.319Z,-2.80
2018-03-01T04:18:28.901Z,-2.90
2018-03-01T04:19:31.434Z,-2.80
2018-03-01T04:20:34.722Z,-2.90
2018-03-01T04:21:38.014Z,-2.90
2018-03-01T04:22:40.577Z,-2.90
2018-03-01T04:23:43.078Z,-3.00
2018-03-01T04:24:45.585Z,-3.00
2018-03-01T04:25:48.088Z,-3.00
2018-03-01T04:26:50.952Z,-2.90
2018-03-01T04:27:53.459Z,-2.80
2018-03-01T04:28:55.961Z,-2.80
2018-03-01T04:29:59.230Z,-2.80
2018-03-01T04:31:01.737Z,-2.80
2018-03-01T04:32:04.494Z,-2.80
2018-03-01T04:33:07.779Z,-2.90
2018-03-01T04:34:11.065Z,-2.90
2018-03-01T04:35:13.578Z,-2.90
2018-03-01T04:36:16.083Z,-2.90
2018-03-01T04:37:19.362Z,-3.00
2018-03-01T04:38:22.628Z,-3.00
2018-03-01T04:39:25.176Z,-3.00
2018-03-01T04:40:27.678Z,-2.90
2018-03-01T04:41:30.947Z,-2.90
2018-03-01T04:42:33.471Z,-3.00
2018-03-01T04:43:35.993Z,-3.00
2018-03-01T04:44:39.270Z,-3.00
2018-03-01T04:45:41.781Z,-3.00
2018-03-01T04:46:44.293Z,-2.90
2018-03-01T04:47:46.826Z,-2.90
2018-03-01T04:48:49.339Z,-2.90
2018-03-01T04:49:52.616Z,-2.90
2018-03-01T04:50:55.894Z,-2.90
2018-03-01T04:51:58.488Z,-2.90
2018-03-01T04:53:01.016Z,-2.90
2018-03-01T04:54:03.525Z,-2.90
2018-03-01T04:55:06.040Z,-2.90
2018-03-01T04:56:08.558Z,-2.90
2018-03-01T04:57:11.058Z,-2.80
2018-03-01T04:58:13.603Z,-2.80
2018-03-01T04:59:16.112Z,-2.90
2018-03-01T05:00:18.620Z,-2.90
2018-03-01T05:01:21.129Z,-2.90
2018-03-01T05:02:23.639Z,-2.80
2018-03-01T05:03:26.172Z,-2.80
2018-03-01T05:04:28.706Z,-2.80
2018-03-01T05:05:31.216Z,-2.80
2018-03-01T05:06:34.489Z,-2.80
2018-03-01T05:07:37.770Z,-2.90
2018-03-01T05:08:40.363Z,-2.90
2018-03-01T05:09:43.646Z,-2.90
2018-03-01T05:10:46.927Z,-2.90
2018-03-01T05:11:50.197Z,-2.90
2018-03-01T05:12:52.702Z,-2.90
2018-03-01T05:13:55.231Z,-2.80
2018-03-01T05:14:57.834Z,-2.80
2018-03-01T05:16:00.346Z,-2.80
2018-03-01T05:17:02.854Z,-2.90
2018-03-01T05:18:05.414Z,-2.90
2018-03-01T05:19:08.002Z,-2.90
2018-03-01T05:20:13.839Z,-2.80
2018-03-01T05:21:16.350Z,-2.80
2018-03-01T05:22:18.851Z,-2.70
2018-03-01T05:23:22.118Z,-2.70
2018-03-01T05:24:24.658Z,-2.70
2018-03-01T05:25:27.155Z,-2.70
2018-03-01T05:26:30.440Z,-2.80
2018-03-01T05:27:33.748Z,-2.80
2018-03-01T05:28:36.311Z,-2.80
2018-03-01T05:29:38.870Z,-2.80
2018-03-01T05:30:41.374Z,-2.80
2018-03-01T05:31:43.891Z,-2.80
2018-03-01T05:32:47.163Z,-2.90
2018-03-01T05:33:49.671Z,-2.90
2018-03-01T05:34:52.194Z,-2.90
2018-03-01T05:35:55.637Z,-2.90
2018-03-01T05:36:58.162Z,-2.90
2018-03-01T05:38:01.431Z,-2.90
2018-03-01T05:39:04.702Z,-2.80
2018-03-01T05:40:07.234Z,-2.80
2018-03-01T05:41:09.734Z,-2.80
2018-03-01T05:42:12.331Z,-2.80
2018-03-01T05:43:14.834Z,-2.70
2018-03-01T05:44:17.338Z,-2.70
2018-03-01T05:45:19.866Z,-2.70
2018-03-01T05:46:22.394Z,-2.70
2018-03-01T05:47:24.886Z,-2.70
2018-03-01T05:48:27.379Z,-2.60
2018-03-01T05:49:29.880Z,-2.70
2018-03-01T05:50:33.168Z,-2.70
2018-03-01T05:51:36.430Z,-2.80
2018-03-01T05:52:38.946Z,-2.80
2018-03-01T05:53:43.586Z,-2.80
2018-03-01T05:54:46.110Z,-2.80
2018-03-01T05:55:48.650Z,-2.80
2018-03-01T05:56:51.926Z,-2.80
2018-03-01T05:57:54.458Z,-2.80
2018-03-01T05:58:56.962Z,-2.80
2018-03-01T06:00:00.239Z,-2.80
2018-03-01T06:01:02.772Z,-2.80
2018-03-01T06:02:05.281Z,-2.70
2018-03-01T06:03:08.552Z,-2.80
2018-03-01T06:04:11.068Z,-2.80
2018-03-01T06:05:13.570Z,-2.80
2018-03-01T06:06:16.116Z,-2.80
2018-03-01T06:07:18.635Z,-2.80
2018-03-01T06:08:21.923Z,-2.90
2018-03-01T06:09:25.245Z,-2.90
2018-03-01T06:10:27.730Z,-2.90
2018-03-01T06:11:30.274Z,-2.90
2018-03-01T06:12:32.804Z,-2.80
2018-03-01T06:13:35.322Z,-2.80
2018-03-01T06:14:37.831Z,-2.80
2018-03-01T06:15:41.102Z,-2.80
2018-03-01T06:16:44.396Z,-2.80
2018-03-01T06:17:47.717Z,-2.70
2018-03-01T06:18:50.217Z,-2.70
2018-03-01T06:19:52.730Z,-2.70
2018-03-01T06:20:55.251Z,-2.70
2018-03-01T06:21:57.784Z,-2.70
2018-03-01T06:23:00.326Z,-2.80
2018-03-01T06:24:02.902Z,-2.80
2018-03-01T06:25:05.460Z,-2.70
2018-03-01T06:26:07.973Z,-2.70
2018-03-01T06:27:10.527Z,-2.70
2018-03-01T06:28:13.044Z,-2.70
2018-03-01T06:29:16.312Z,-2.60
2018-03-01T06:30:19.660Z,-2.60
2018-03-01T06:31:22.172Z,-2.70
2018-03-01T06:32:25.483Z,-2.60
2018-03-01T06:33:27.990Z,-2.60
2018-03-01T06:34:30.500Z,-2.60
2018-03-01T06:35:33.057Z,-2.60
2018-03-01T06:36:35.591Z,-2.50
2018-03-01T06:37:38.140Z,-2.50
2018-03-01T06:38:40.654Z,-2.60
2018-03-01T06:39:43.956Z,-2.60
2018-03-01T06:40:46.466Z,-2.60
2018-03-01T06:41:48.990Z,-2.60
2018-03-01T06:42:51.535Z,-2.60
2018-03-01T06:43:54.814Z,-2.60
2018-03-01T06:44:58.085Z,-2.70
2018-03-01T06:46:00.590Z,-2.60
2018-03-01T06:47:03.102Z,-2.70
2018-03-01T06:48:05.665Z,-2.70
2018-03-01T06:49:08.254Z,-2.70
2018-03-01T06:50:10.734Z,-2.70
2018-03-01T06:51:13.247Z,-2.80
2018-03-01T06:52:15.850Z,-2.80
2018-03-01T06:53:19.150Z,-2.70
2018-03-01T06:54:22.419Z,-2.80
2018-03-01T06:55:25.696Z,-2.80
2018-03-01T06:56:28.229Z,-2.80
2018-03-01T06:57:30.743Z,-2.80
2018-03-01T06:58:34.137Z,-2.70
2018-03-01T06:59:36.639Z,-2.70
2018-03-01T07:00:39.198Z,-2.70
2018-03-01T07:01:41.703Z,-2.70
2018-03-01T07:02:44.978Z,-2.70
2018-03-01T07:03:47.582Z,-2.70
2018-03-01T07:04:50.088Z,-2.70
2018-03-01T07:05:52.650Z,-2.70
2018-03-01T07:06:55.171Z,-2.70
2018-03-01T07:07:58.583Z,-2.70
2018-03-01T07:09:01.114Z,-2.70
2018-03-01T07:10:04.443Z,-2.70
2018-03-01T07:11:06.999Z,-2.70
2018-03-01T07:12:09.566Z,-2.70
2018-03-01T07:13:12.091Z,-2.60
2018-03-01T07:14:15.385Z,-2.60
2018-03-01T07:15:18.706Z,-2.60
2018-03-01T07:16:21.210Z,-2.60
2018-03-01T07:17:23.727Z,-2.50
2018-03-01T07:18:26.256Z,-2.60
2018-03-01T07:19:28.800Z,-2.50
2018-03-01T07:20:31.320Z,-2.50
2018-03-01T07:21:33.850Z,-2.50
2018-03-01T07:22:37.184Z,-2.50
2018-03-01T07:23:39.680Z,-2.50
2018-03-01T07:24:42.223Z,-2.40
2018-03-01T07:25:44.738Z,-2.40
2018-03-01T07:26:48.137Z,-2.40
2018-03-01T07:27:51.460Z,-2.40
2018-03-01T07:28:56.244Z,-2.40
2018-03-01T07:29:59.856Z,-2.40
2018-03-01T07:31:06.873Z,-2.40
2018-03-01T07:32:09.383Z,-2.40
2018-03-01T07:33:11.894Z,-2.40
2018-03-01T07:34:14.403Z,-2.40
2018-03-01T07:35:16.923Z,-2.30
2018-03-01T07:36:19.542Z,-2.30
2018-03-01T07:37:22.066Z,-2.30
2018-03-01T07:38:24.580Z,-2.30
2018-03-01T07:39:27.094Z,-2.30
2018-03-01T07:40:29.915Z,-2.30
2018-03-01T07:41:32.426Z,-2.30
2018-03-01T07:42:34.952Z,-2.30
2018-03-01T07:43:37.454Z,-2.30
2018-03-01T07:44:39.963Z,-2.20
2018-03-01T07:45:43.265Z,-2.30
2018-03-01T07:46:45.774Z,-2.30
2018-03-01T07:47:48.287Z,-2.30
2018-03-01T07:48:50.798Z,-2.30
2018-03-01T07:49:54.223Z,-2.30
2018-03-01T07:50:57.509Z,-2.20
2018-03-01T07:52:00.795Z,-2.20
2018-03-01T07:53:03.381Z,-2.20
2018-03-01T07:54:05.893Z,-2.20
2018-03-01T07:55:08.423Z,-2.20
2018-03-01T07:56:10.951Z,-2.20
2018-03-01T07:57:14.290Z,-2.20
2018-03-01T07:58:16.806Z,-2.20
2018-03-01T07:59:20.075Z,-2.10
2018-03-01T08:00:23.388Z,-2.00
2018-03-01T08:01:25.940Z,-2.00
2018-03-01T08:02:29.211Z,-1.90
2018-03-01T08:03:32.475Z,-1.90
2018-03-01T08:04:34.985Z,-1.90
2018-03-01T08:05:37.482Z,-1.90
2018-03-01T08:06:40.011Z,-1.90
2018-03-01T08:07:42.571Z,-1.90
2018-03-01T08:08:45.843Z,-1.80
2018-03-01T08:09:49.114Z,-1.80
2018-03-01T08:10:52.413Z,-1.80
2018-03-01T08:11:55.725Z,-1.80
2018-03-01T08:12:58.230Z,-1.90
2018-03-01T08:14:00.737Z,-1.80
2018-03-01T08:15:04.008Z,-1.90
2018-03-01T08:16:07.290Z,-1.90
2018-03-01T08:17:10.898Z,-1.80
2018-03-01T08:18:13.398Z,-1.80
2018-03-01T08:19:15.912Z,-1.80
2018-03-01T08:20:18.418Z,-1.80
2018-03-01T08:21:20.918Z,-1.90
2018-03-01T08:22:23.625Z,-1.90
2018-03-01T08:23:26.891Z,-1.90
2018-03-01T08:24:30.169Z,-1.80
2018-03-01T08:25:32.670Z,-1.80
2018-03-01T08:26:35.184Z,-1.80
2018-03-01T08:27:37.715Z,-1.70
2018-03-01T08:28:40.215Z,-1.70
2018-03-01T08:29:42.722Z,-1.60
2018-03-01T08:30:45.246Z,-1.60
2018-03-01T08:31:48.539Z,-1.60
2018-03-01T08:32:51.066Z,-1.70
2018-03-01T08:33:53.568Z,-1.60
2018-03-01T08:34:56.066Z,-1.60
2018-03-01T08:35:59.362Z,-1.50
2018-03-01T08:37:01.875Z,-1.50
2018-03-01T08:38:05.943Z,-1.50
2018-03-01T08:39:08.483Z,-1.50
2018-03-01T08:40:11.751Z,-1.50
2018-03-01T08:41:15.031Z,-1.50
2018-03-01T08:42:18.302Z,-1.50
2018-03-01T08:43:20.824Z,-1.50
2018-03-01T08:44:23.365Z,-1.50
2018-03-01T08:45:25.918Z,-1.40
2018-03-01T08:46:29.195Z,-1.30
2018-03-01T08:47:32.491Z,-1.30
2018-03-01T08:48:35.801Z,-1.30
2018-03-01T08:49:38.350Z,-1.30
2018-03-01T08:50:40.855Z,-1.30
2018-03-01T08:51:43.367Z,-1.30
2018-03-01T08:52:46.646Z,-1.30
2018-03-01T08:53:49.974Z,-1.30
2018-03-01T08:54:52.494Z,-1.30
2018-03-01T08:55:55.775Z,-1.30
2018-03-01T08:56:59.042Z,-1.40
2018-03-01T08:58:01.546Z,-1.30
2018-03-01T08:59:04.087Z,-1.30
2018-03-01T09:00:07.375Z,-1.30
2018-03-01T09:01:10.665Z,-1.20
2018-03-01T09:02:13.941Z,-1.20
2018-03-01T09:03:17.206Z,-1.10
2018-03-01T09:04:20.015Z,-1.20
2018-03-01T09:05:22.519Z,-1.10
2018-03-01T09:06:25.026Z,-1.10
2018-03-01T09:07:28.318Z,-1.00
2018-03-01T09:08:31.615Z,-1.00
2018-03-01T09:09:34.162Z,-1.00
2018-03-01T09:10:37.445Z,-0.90
2018-03-01T09:11:40.707Z,-0.90
2018-03-01T09:12:43.208Z,-0.90
2018-03-01T09:13:46.483Z,-0.80
2018-03-01T09:14:49.792Z,-0.70
2018-03-01T09:15:52.303Z,-0.70
2018-03-01T09:16:54.847Z,-0.70
2018-03-01T09:17:57.359Z,-0.70
2018-03-01T09:19:00.642Z,-0.60
2018-03-01T09:20:03.959Z,-0.60
2018-03-01T09:21:06.461Z,-0.60
2018-03-01T09:22:08.976Z,-0.60
2018-03-01T09:23:11.483Z,-0.50
2018-03-01T09:24:13.991Z,-0.50
2018-03-01T09:25:17.306Z,-0.50
2018-03-01T09:26:19.810Z,-0.50
2018-03-01T09:27:22.426Z,-0.50
2018-03-01T09:28:24.938Z,-0.50
2018-03-01T09:29:27.447Z,-0.50
2018-03-01T09:30:29.993Z,-0.50
2018-03-01T09:31:33.284Z,-0.50
2018-03-01T09:32:36.573Z,-0.50
2018-03-01T09:33:39.846Z,-0.50
2018-03-01T09:34:43.115Z,-0.50
2018-03-01T09:35:45.641Z,-0.50
2018-03-01T09:36:48.186Z,-0.50
2018-03-01T09:37:50.689Z,-0.50
2018-03-01T09:38:53.195Z,-0.50
2018-03-01T09:39:56.470Z,-0.60
2018-03-01T09:40:59.279Z,-0.60
2018-03-01T09:42:01.782Z,-0.60
2018-03-01T09:43:04.283Z,-0.60
2018-03-01T09:44:07.557Z,-0.50
2018-03-01T09:45:10.836Z,-0.40
2018-03-01T09:46:13.354Z,-0.40
2018-03-01T09:47:15.901Z,-0.30
2018-03-01T09:48:18.407Z,-0.30
2018-03-01T09:49:20.947Z,-0.20
2018-03-01T09:50:23.457Z,-0.20
2018-03-01T09:51:26.286Z,-0.10
2018-03-01T09:52:28.864Z,-0.10
2018-03-01T09:53:31.362Z,0.00
2018-03-01T09:54:33.879Z,0.00
2018-03-01T09:55:36.398Z,0.10
2018-03-01T09:56:38.926Z,0.10
2018-03-01T09:57:41.434Z,0.10
2018-03-01T09:58:44.714Z,0.20
2018-03-01T09:59:47.247Z,0.20
2018-03-01T10:00:50.079Z,0.20
2018-03-01T10:01:53.362Z,0.20
2018-03-01T10:02:56.622Z,0.20
2018-03-01T10:03:59.122Z,0.20
2018-03-01T10:05:01.710Z,0.20
2018-03-01T10:06:04.238Z,0.20
2018-03-01T10:07:07.533Z,0.20
2018-03-01T10:08:10.046Z,0.20
2018-03-01T10:09:12.538Z,0.20
2018-03-01T10:10:15.798Z,0.10
2018-03-01T10:11:18.301Z,0.10
2018-03-01T10:12:20.834Z,0.10
2018-03-01T10:13:24.395Z,0.10
2018-03-01T10:14:27.874Z,0.00
2018-03-01T10:15:30.396Z,0.00
2018-03-01T10:16:33.682Z,0.10
2018-03-01T10:17:36.978Z,0.10
2018-03-01T10:18:40.256Z,0.10
2018-03-01T10:19:43.531Z,0.10
2018-03-01T10:20:46.809Z,0.10
2018-03-01T10:21:49.310Z,0.10
2018-03-01T10:22:51.829Z,0.10
2018-03-01T10:23:54.339Z,0.10
2018-03-01T10:24:56.863Z,0.10
2018-03-01T10:25:59.411Z,0.10
2018-03-01T10:27:01.939Z,0.10
2018-03-01T10:28:04.872Z,0.10
2018-03-01T10:29:08.179Z,0.10
2018-03-01T10:30:10.755Z,0.10
2018-03-01T10:31:13.266Z,0.10
2018-03-01T10:32:15.773Z,0.20
2018-03-01T10:33:19.078Z,0.10
2018-03-01T10:34:21.631Z,0.10
2018-03-01T10:35:27.292Z,0.10
2018-03-01T10:36:33.272Z,0.20
2018-03-01T10:37:36.334Z,0.10
2018-03-01T10:38:38.946Z,0.20
2018-03-01T10:39:44.929Z,0.20
2018-03-01T10:40:47.981Z,0.30
2018-03-01T10:41:51.291Z,0.40
2018-03-01T10:42:54.952Z,0.30
2018-03-01T10:43:58.368Z,0.40
2018-03-01T10:45:00.902Z,0.40
2018-03-01T10:46:04.194Z,0.40
2018-03-01T10:47:06.712Z,0.40
2018-03-01T10:48:09.212Z,0.40
2018-03-01T10:49:12.503Z,0.40
2018-03-01T10:50:15.781Z,0.50
2018-03-01T10:51:19.044Z,0.50
2018-03-01T10:52:21.594Z,0.50
2018-03-01T10:53:24.097Z,0.50
2018-03-01T10:54:27.403Z,0.60
2018-03-01T10:55:29.943Z,0.60
2018-03-01T10:56:33.238Z,0.80
2018-03-01T10:57:36.538Z,0.80
2018-03-01T10:58:39.050Z,0.80
2018-03-01T10:59:41.566Z,0.80
2018-03-01T11:00:44.086Z,0.90
2018-03-01T11:01:52.634Z,0.90
2018-03-01T11:02:55.129Z,1.00
2018-03-01T11:03:57.703Z,1.00
2018-03-01T11:05:00.531Z,1.10
2018-03-01T11:06:03.806Z,1.10
2018-03-01T11:07:07.071Z,1.10
2018-03-01T11:08:12.575Z,1.10
2018-03-01T11:09:15.895Z,1.20
2018-03-01T11:10:21.525Z,1.20
2018-03-01T11:11:24.035Z,1.20
2018-03-01T11:12:26.595Z,1.30
2018-03-01T11:13:29.879Z,1.30
2018-03-01T11:14:33.589Z,1.40
2018-03-01T11:15:36.118Z,1.40
2018-03-01T11:16:41.321Z,1.40
2018-03-01T11:17:43.839Z,1.50
2018-03-01T11:18:48.781Z,1.60
2018-03-01T11:19:51.348Z,1.50
2018-03-01T11:20:53.869Z,1.60
2018-03-01T11:21:57.170Z,1.60
2018-03-01T11:22:59.675Z,1.60
2018-03-01T11:24:02.174Z,1.60
2018-03-01T11:25:04.837Z,1.60
2018-03-01T11:27:16.627Z,1.60
2018-03-01T11:28:20.756Z,1.60
2018-03-01T11:29:23.268Z,1.70
2018-03-01T11:30:25.800Z,1.60
2018-03-01T11:31:28.323Z,1.70
2018-03-01T11:32:30.832Z,1.70
2018-03-01T11:33:33.331Z,1.70
2018-03-01T11:34:35.850Z,1.70
2018-03-01T11:35:38.358Z,1.80
2018-03-01T11:36:40.894Z,1.80
2018-03-01T11:37:43.422Z,1.90
2018-03-01T11:38:46.834Z,1.90
2018-03-01T11:39:50.099Z,1.80
2018-03-01T11:40:53.361Z,1.80
2018-03-01T11:41:55.920Z,1.80
2018-03-01T11:42:58.416Z,1.80
2018-03-01T11:44:01.678Z,1.80
2018-03-01T11:45:04.182Z,1.80
2018-03-01T11:46:06.690Z,1.80
2018-03-01T11:47:09.507Z,1.80
2018-03-01T11:48:12.774Z,1.80
2018-03-01T11:49:15.286Z,1.80
2018-03-01T11:50:17.792Z,1.80
2018-03-01T11:51:20.297Z,1.90
2018-03-01T11:52:22.855Z,1.90
2018-03-01T11:53:26.129Z,1.80
2018-03-01T11:54:29.398Z,1.90
2018-03-01T11:55:32.002Z,1.80
2018-03-01T11:56:34.506Z,1.80
2018-03-01T11:57:37.046Z,1.80
2018-03-01T11:58:39.615Z,1.80
2018-03-01T11:59:42.110Z,1.80
2018-03-01T12:00:44.612Z,1.80
2018-03-01T12:01:47.891Z,1.80
2018-03-01T12:02:51.174Z,1.70
2018-03-01T12:03:54.451Z,1.70
2018-03-01T12:04:56.994Z,1.70
2018-03-01T12:05:59.570Z,1.70
2018-03-01T12:07:02.079Z,1.80
2018-03-01T12:08:04.602Z,1.80
2018-03-01T12:09:07.119Z,1.80
2018-03-01T12:10:09.618Z,1.90
2018-03-01T12:11:12.112Z,1.90
2018-03-01T12:12:14.625Z,1.90
2018-03-01T12:13:17.177Z,1.90
2018-03-01T12:14:19.691Z,1.90
2018-03-01T12:15:22.182Z,1.90
2018-03-01T12:16:25.450Z,2.00
2018-03-01T12:17:27.970Z,1.90
2018-03-01T12:18:30.516Z,1.90
2018-03-01T12:19:33.027Z,2.00
2018-03-01T12:20:35.537Z,2.00
2018-03-01T12:21:38.812Z,2.00
2018-03-01T12:22:41.323Z,2.00
2018-03-01T12:23:44.165Z,2.10
2018-03-01T12:24:46.682Z,2.10
2018-03-01T12:25:49.194Z,2.10
2018-03-01T12:26:52.459Z,2.20
2018-03-01T12:27:55.724Z,2.20
2018-03-01T12:28:58.252Z,2.20
2018-03-01T12:30:00.808Z,2.20
2018-03-01T12:31:03.336Z,2.20
2018-03-01T12:32:06.626Z,2.20
2018-03-01T12:33:09.915Z,2.20
2018-03-01T12:34:13.321Z,2.20
2018-03-01T12:35:15.826Z,2.20
2018-03-01T12:36:18.366Z,2.20
2018-03-01T12:37:20.884Z,2.20
2018-03-01T12:38:24.147Z,2.20
2018-03-01T12:39:26.758Z,2.20
2018-03-01T12:40:29.265Z,2.20
2018-03-01T12:41:31.795Z,2.20
2018-03-01T12:42:34.290Z,2.30
2018-03-01T12:43:36.827Z,2.30
2018-03-01T12:44:39.370Z,2.30
2018-03-01T12:45:42.642Z,2.30
2018-03-01T12:46:45.924Z,2.30
2018-03-01T12:47:48.441Z,2.30
2018-03-01T12:48:50.952Z,2.30
2018-03-01T12:49:53.522Z,2.30
2018-03-01T12:50:56.043Z,2.30
2018-03-01T12:51:58.551Z,2.30
2018-03-01T12:53:01.096Z,2.20
2018-03-01T12:54:03.607Z,2.20
2018-03-01T12:55:06.840Z,2.30
2018-03-01T12:56:09.353Z,2.30
2018-03-01T12:57:12.624Z,2.30
2018-03-01T12:58:15.923Z,2.30
2018-03-01T12:59:19.191Z,2.40
2018-03-01T13:00:22.473Z,2.40
2018-03-01T13:01:24.990Z,2.40
2018-03-01T13:02:27.492Z,2.40
2018-03-01T13:03:29.991Z,2.40
2018-03-01T13:06:08.306Z,2.50
2018-03-01T13:07:10.820Z,2.40
2018-03-01T13:08:13.315Z,2.50
2018-03-01T13:09:16.582Z,2.50
2018-03-01T13:10:19.096Z,2.50
2018-03-01T13:11:21.634Z,2.50
2018-03-01T13:12:24.902Z,2.50
2018-03-01T13:13:27.403Z,2.50
2018-03-01T13:14:29.916Z,2.50
2018-03-01T13:15:32.434Z,2.50
2018-03-01T13:16:34.964Z,2.60
2018-03-01T13:17:38.282Z,2.60
2018-03-01T13:18:40.790Z,2.60
2018-03-01T13:19:43.300Z,2.70
2018-03-01T13:20:46.563Z,2.70
2018-03-01T13:21:49.868Z,2.70
2018-03-01T13:22:53.175Z,2.70
2018-03-01T13:23:55.682Z,2.70
2018-03-01T13:24:58.185Z,2.70
2018-03-01T13:26:00.685Z,2.80
2018-03-01T13:27:03.227Z,2.80
2018-03-01T13:28:05.729Z,2.80
2018-03-01T13:29:08.226Z,2.90
2018-03-01T13:30:11.486Z,2.90
2018-03-01T13:31:16.949Z,2.90
2018-03-01T13:32:23.853Z,3.00
2018-03-01T13:35:10.831Z,3.00
2018-03-01T13:36:14.106Z,3.10
2018-03-01T13:37:16.603Z,3.10
2018-03-01T13:38:19.150Z,3.10
2018-03-01T13:39:22.419Z,3.00
2018-03-01T13:40:24.928Z,3.00